sensor_id;sensor_type;location;lat;lon;timestamp;temperature;humidity
3360;DHT22;1693;49.602;11.046;2023-08-21T00:00:52;22.80;99.90
3360;DHT22;1693;49.602;11.046;2023-08-21T00:05:46;22.90;99.90
3360;DHT22;1693;49.602;11.046;2023-08-21T00:08:13;22.80;99.90
3360;DHT22;1693;49.602;11.046;2023-08-21T00:10:40;22.70;99.90
3360;DHT22;1693;49.602;11.046;2023-08-21T00:13:07;22.60;99.90
3360;DHT22;1693;49.602;11.046;2023-08-21T00:15:37;22.50;99.90
3360;DHT22;1693;49.602;11.046;2023-08-21T01:07:24;23.10;99.90
3360;DHT22;1693;49.602;11.046;2023-08-21T01:09:58;23.00;99.90
3360;DHT22;1693;49.602;11.046;2023-08-21T01:12:35;22.90;99.90
3360;DHT22;1693;49.602;11.046;2023-08-21T01:15:05;22.80;99.90
3360;DHT22;1693;49.602;11.046;2023-08-21T01:17:34;22.80;99.90
3360;DHT22;1693;49.602;11.046;2023-08-21T01:20:07;22.80;99.90
3360;DHT22;1693;49.602;11.046;2023-08-21T01:22:36;22.90;99.90
3360;DHT22;1693;49.602;11.046;2023-08-21T01:25:08;23.10;99.90
3360;DHT22;1693;49.602;11.046;2023-08-21T01:27:36;23.10;99.90
3360;DHT22;1693;49.602;11.046;2023-08-21T01:30:08;23.10;99.90
3360;DHT22;1693;49.602;11.046;2023-08-21T01:32:41;23.10;99.90
3360;DHT22;1693;49.602;11.046;2023-08-21T01:35:17;23.30;99.90
3360;DHT22;1693;49.602;11.046;2023-08-21T01:37:45;23.70;99.90
3360;DHT22;1693;49.602;11.046;2023-08-21T01:40:22;23.40;99.90
3360;DHT22;1693;49.602;11.046;2023-08-21T01:42:49;23.30;99.90
3360;DHT22;1693;49.602;11.046;2023-08-21T01:45:16;23.10;99.90
3360;DHT22;1693;49.602;11.046;2023-08-21T01:47:43;22.90;99.90
3360;DHT22;1693;49.602;11.046;2023-08-21T01:50:10;22.70;99.90
3360;DHT22;1693;49.602;11.046;2023-08-21T01:52:38;22.50;99.90
3360;DHT22;1693;49.602;11.046;2023-08-21T01:55:06;22.40;99.90
3360;DHT22;1693;49.602;11.046;2023-08-21T01:57:35;22.20;99.90
3360;DHT22;1693;49.602;11.046;2023-08-21T02:00:02;22.10;99.90
3360;DHT22;1693;49.602;11.046;2023-08-21T02:02:30;22.10;99.90
3360;DHT22;1693;49.602;11.046;2023-08-21T02:04:57;22.00;99.90
3360;DHT22;1693;49.602;11.046;2023-08-21T02:07:27;22.00;99.90
3360;DHT22;1693;49.602;11.046;2023-08-21T02:09:54;21.90;99.90
3360;DHT22;1693;49.602;11.046;2023-08-21T02:12:22;21.80;99.90
3360;DHT22;1693;49.602;11.046;2023-08-21T02:14:50;21.80;99.90
3360;DHT22;1693;49.602;11.046;2023-08-21T02:17:17;21.90;99.90
3360;DHT22;1693;49.602;11.046;2023-08-21T02:19:44;21.80;99.90
3360;DHT22;1693;49.602;11.046;2023-08-21T02:22:11;21.80;99.90
3360;DHT22;1693;49.602;11.046;2023-08-21T02:24:38;21.80;99.90
3360;DHT22;1693;49.602;11.046;2023-08-21T02:27:05;21.90;99.90
3360;DHT22;1693;49.602;11.046;2023-08-21T02:29:32;22.00;99.90
3360;DHT22;1693;49.602;11.046;2023-08-21T02:32:00;22.10;99.90
3360;DHT22;1693;49.602;11.046;2023-08-21T02:34:27;22.10;99.90
3360;DHT22;1693;49.602;11.046;2023-08-21T02:36:54;22.20;99.90
3360;DHT22;1693;49.602;11.046;2023-08-21T02:39:22;22.20;99.90
3360;DHT22;1693;49.602;11.046;2023-08-21T02:41:48;22.30;99.90
3360;DHT22;1693;49.602;11.046;2023-08-21T02:44:16;22.30;99.90
3360;DHT22;1693;49.602;11.046;2023-08-21T02:46:43;22.30;99.90
3360;DHT22;1693;49.602;11.046;2023-08-21T02:49:11;22.30;99.90
3360;DHT22;1693;49.602;11.046;2023-08-21T02:51:38;22.40;99.90
3360;DHT22;1693;49.602;11.046;2023-08-21T02:54:05;22.40;99.90
3360;DHT22;1693;49.602;11.046;2023-08-21T02:56:32;22.40;99.90
3360;DHT22;1693;49.602;11.046;2023-08-21T02:58:59;22.50;99.90
3360;DHT22;1693;49.602;11.046;2023-08-21T03:01:26;22.70;99.90
3360;DHT22;1693;49.602;11.046;2023-08-21T03:03:53;22.70;99.90
3360;DHT22;1693;49.602;11.046;2023-08-21T03:06:21;22.60;99.90
3360;DHT22;1693;49.602;11.046;2023-08-21T03:08:48;22.60;99.90
3360;DHT22;1693;49.602;11.046;2023-08-21T03:11:15;22.70;99.90
3360;DHT22;1693;49.602;11.046;2023-08-21T03:13:43;22.60;99.90
3360;DHT22;1693;49.602;11.046;2023-08-21T03:16:10;22.70;99.90
3360;DHT22;1693;49.602;11.046;2023-08-21T03:18:54;22.80;99.90
3360;DHT22;1693;49.602;11.046;2023-08-21T03:21:24;23.00;99.90
3360;DHT22;1693;49.602;11.046;2023-08-21T03:23:54;22.90;99.90
3360;DHT22;1693;49.602;11.046;2023-08-21T03:26:21;22.90;99.90
3360;DHT22;1693;49.602;11.046;2023-08-21T03:28:48;23.10;99.90
3360;DHT22;1693;49.602;11.046;2023-08-21T03:31:15;22.90;99.90
3360;DHT22;1693;49.602;11.046;2023-08-21T03:33:42;22.80;99.90
3360;DHT22;1693;49.602;11.046;2023-08-21T03:36:09;22.80;99.90
3360;DHT22;1693;49.602;11.046;2023-08-21T03:38:38;22.80;99.90
3360;DHT22;1693;49.602;11.046;2023-08-21T03:41:05;22.90;99.90
3360;DHT22;1693;49.602;11.046;2023-08-21T03:43:32;22.90;99.90
3360;DHT22;1693;49.602;11.046;2023-08-21T03:45:59;22.90;99.90
3360;DHT22;1693;49.602;11.046;2023-08-21T03:48:26;22.90;99.90
3360;DHT22;1693;49.602;11.046;2023-08-21T03:50:53;23.00;99.90
3360;DHT22;1693;49.602;11.046;2023-08-21T03:53:20;22.90;99.90
3360;DHT22;1693;49.602;11.046;2023-08-21T03:55:48;23.00;99.90
3360;DHT22;1693;49.602;11.046;2023-08-21T03:58:15;23.20;99.90
3360;DHT22;1693;49.602;11.046;2023-08-21T04:00:42;23.30;99.90
3360;DHT22;1693;49.602;11.046;2023-08-21T04:03:09;23.40;99.90
3360;DHT22;1693;49.602;11.046;2023-08-21T04:05:37;23.40;99.90
3360;DHT22;1693;49.602;11.046;2023-08-21T04:08:04;23.40;99.90
3360;DHT22;1693;49.602;11.046;2023-08-21T04:10:32;23.30;99.90
3360;DHT22;1693;49.602;11.046;2023-08-21T04:13:00;23.20;99.90
3360;DHT22;1693;49.602;11.046;2023-08-21T04:15:27;23.10;99.90
3360;DHT22;1693;49.602;11.046;2023-08-21T04:17:55;23.30;99.90
3360;DHT22;1693;49.602;11.046;2023-08-21T04:20:22;23.30;99.90
3360;DHT22;1693;49.602;11.046;2023-08-21T04:22:49;23.10;99.90
3360;DHT22;1693;49.602;11.046;2023-08-21T04:25:16;22.90;99.90
3360;DHT22;1693;49.602;11.046;2023-08-21T04:27:43;22.80;99.90
3360;DHT22;1693;49.602;11.046;2023-08-21T04:30:12;22.80;99.90
3360;DHT22;1693;49.602;11.046;2023-08-21T04:32:39;22.90;99.90
3360;DHT22;1693;49.602;11.046;2023-08-21T04:35:08;22.80;99.90
3360;DHT22;1693;49.602;11.046;2023-08-21T04:37:37;22.80;99.90
3360;DHT22;1693;49.602;11.046;2023-08-21T04:40:06;22.90;99.90
3360;DHT22;1693;49.602;11.046;2023-08-21T04:42:33;23.00;99.90
3360;DHT22;1693;49.602;11.046;2023-08-21T04:45:00;23.00;99.90
3360;DHT22;1693;49.602;11.046;2023-08-21T04:47:29;22.80;99.90
3360;DHT22;1693;49.602;11.046;2023-08-21T04:49:56;22.60;99.90
3360;DHT22;1693;49.602;11.046;2023-08-21T04:52:23;22.40;99.90
3360;DHT22;1693;49.602;11.046;2023-08-21T04:54:51;22.30;99.90
3360;DHT22;1693;49.602;11.046;2023-08-21T04:57:18;22.30;99.90
3360;DHT22;1693;49.602;11.046;2023-08-21T04:59:47;22.20;99.90
3360;DHT22;1693;49.602;11.046;2023-08-21T05:02:14;22.20;99.90
3360;DHT22;1693;49.602;11.046;2023-08-21T05:04:42;22.10;99.90
3360;DHT22;1693;49.602;11.046;2023-08-21T05:07:09;22.10;99.90
3360;DHT22;1693;49.602;11.046;2023-08-21T05:09:37;22.10;99.90
3360;DHT22;1693;49.602;11.046;2023-08-21T05:12:07;22.10;99.90
3360;DHT22;1693;49.602;11.046;2023-08-21T05:14:34;22.00;99.90
3360;DHT22;1693;49.602;11.046;2023-08-21T05:17:01;22.00;99.90
3360;DHT22;1693;49.602;11.046;2023-08-21T05:19:28;22.00;99.90
3360;DHT22;1693;49.602;11.046;2023-08-21T05:21:56;22.10;99.90
3360;DHT22;1693;49.602;11.046;2023-08-21T05:24:23;22.00;99.90
3360;DHT22;1693;49.602;11.046;2023-08-21T05:26:50;22.10;99.90
3360;DHT22;1693;49.602;11.046;2023-08-21T05:29:17;22.10;99.90
3360;DHT22;1693;49.602;11.046;2023-08-21T05:31:44;22.00;99.90
3360;DHT22;1693;49.602;11.046;2023-08-21T05:34:11;22.10;99.90
3360;DHT22;1693;49.602;11.046;2023-08-21T05:36:38;22.20;99.90
3360;DHT22;1693;49.602;11.046;2023-08-21T05:39:08;22.30;99.90
3360;DHT22;1693;49.602;11.046;2023-08-21T05:41:34;22.30;99.90
3360;DHT22;1693;49.602;11.046;2023-08-21T05:44:02;22.30;99.90
3360;DHT22;1693;49.602;11.046;2023-08-21T05:46:30;22.30;99.90
3360;DHT22;1693;49.602;11.046;2023-08-21T05:48:56;22.30;99.90
3360;DHT22;1693;49.602;11.046;2023-08-21T05:51:24;22.30;99.90
3360;DHT22;1693;49.602;11.046;2023-08-21T05:53:51;22.40;99.90
3360;DHT22;1693;49.602;11.046;2023-08-21T05:56:20;22.40;99.90
3360;DHT22;1693;49.602;11.046;2023-08-21T05:58:47;22.60;99.90
3360;DHT22;1693;49.602;11.046;2023-08-21T06:01:14;22.70;99.90
3360;DHT22;1693;49.602;11.046;2023-08-21T06:03:42;22.90;99.90
3360;DHT22;1693;49.602;11.046;2023-08-21T06:06:09;23.20;99.90
3360;DHT22;1693;49.602;11.046;2023-08-21T06:08:36;23.40;99.90
3360;DHT22;1693;49.602;11.046;2023-08-21T06:11:03;23.70;99.90
3360;DHT22;1693;49.602;11.046;2023-08-21T06:13:32;23.60;99.90
3360;DHT22;1693;49.602;11.046;2023-08-21T06:15:59;23.70;99.90
3360;DHT22;1693;49.602;11.046;2023-08-21T06:18:26;23.70;99.90
3360;DHT22;1693;49.602;11.046;2023-08-21T06:20:54;23.70;99.90
3360;DHT22;1693;49.602;11.046;2023-08-21T06:23:21;23.70;99.90
3360;DHT22;1693;49.602;11.046;2023-08-21T06:25:48;23.70;99.90
3360;DHT22;1693;49.602;11.046;2023-08-21T06:28:15;23.90;99.90
3360;DHT22;1693;49.602;11.046;2023-08-21T06:30:44;24.10;99.90
3360;DHT22;1693;49.602;11.046;2023-08-21T06:33:11;24.20;99.90
3360;DHT22;1693;49.602;11.046;2023-08-21T06:38:06;24.60;99.90
3360;DHT22;1693;49.602;11.046;2023-08-21T06:40:32;24.80;99.90
3360;DHT22;1693;49.602;11.046;2023-08-21T06:43:03;25.20;99.90
3360;DHT22;1693;49.602;11.046;2023-08-21T06:45:53;25.40;99.90
3360;DHT22;1693;49.602;11.046;2023-08-21T06:48:38;25.50;99.90
3360;DHT22;1693;49.602;11.046;2023-08-21T06:51:05;25.60;99.90
3360;DHT22;1693;49.602;11.046;2023-08-21T06:53:32;25.90;99.90
3360;DHT22;1693;49.602;11.046;2023-08-21T06:55:59;25.90;99.90
3360;DHT22;1693;49.602;11.046;2023-08-21T06:58:26;26.10;99.90
3360;DHT22;1693;49.602;11.046;2023-08-21T07:00:55;26.20;99.90
3360;DHT22;1693;49.602;11.046;2023-08-21T07:03:23;26.20;99.90
3360;DHT22;1693;49.602;11.046;2023-08-21T07:05:53;26.20;99.90
3360;DHT22;1693;49.602;11.046;2023-08-21T07:08:21;26.50;99.90
3360;DHT22;1693;49.602;11.046;2023-08-21T07:10:48;26.50;99.90
3360;DHT22;1693;49.602;11.046;2023-08-21T07:13:15;26.60;99.90
3360;DHT22;1693;49.602;11.046;2023-08-21T07:15:42;26.60;99.90
3360;DHT22;1693;49.602;11.046;2023-08-21T07:18:10;26.80;99.90
3360;DHT22;1693;49.602;11.046;2023-08-21T07:20:40;26.90;99.90
3360;DHT22;1693;49.602;11.046;2023-08-21T07:23:09;27.10;99.90
3360;DHT22;1693;49.602;11.046;2023-08-21T07:25:37;27.20;99.90
3360;DHT22;1693;49.602;11.046;2023-08-21T07:28:05;27.10;99.90
3360;DHT22;1693;49.602;11.046;2023-08-21T07:30:32;27.20;99.90
3360;DHT22;1693;49.602;11.046;2023-08-21T07:32:59;27.00;99.90
3360;DHT22;1693;49.602;11.046;2023-08-21T07:35:27;27.00;99.90
3360;DHT22;1693;49.602;11.046;2023-08-21T07:37:54;27.30;99.90
3360;DHT22;1693;49.602;11.046;2023-08-21T07:40:22;27.60;99.90
3360;DHT22;1693;49.602;11.046;2023-08-21T07:42:49;27.90;99.90
3360;DHT22;1693;49.602;11.046;2023-08-21T07:45:16;28.20;99.90
3360;DHT22;1693;49.602;11.046;2023-08-21T07:47:43;28.30;99.90
3360;DHT22;1693;49.602;11.046;2023-08-21T07:50:10;28.40;99.90
3360;DHT22;1693;49.602;11.046;2023-08-21T07:52:41;28.20;99.90
3360;DHT22;1693;49.602;11.046;2023-08-21T07:55:08;28.20;99.90
3360;DHT22;1693;49.602;11.046;2023-08-21T07:57:35;27.60;99.90
3360;DHT22;1693;49.602;11.046;2023-08-21T08:00:03;27.70;99.90
3360;DHT22;1693;49.602;11.046;2023-08-21T08:02:34;27.90;99.90
3360;DHT22;1693;49.602;11.046;2023-08-21T08:05:01;27.90;99.90
3360;DHT22;1693;49.602;11.046;2023-08-21T08:07:28;27.80;99.90
3360;DHT22;1693;49.602;11.046;2023-08-21T08:09:57;27.90;99.90
3360;DHT22;1693;49.602;11.046;2023-08-21T08:12:24;27.80;99.90
3360;DHT22;1693;49.602;11.046;2023-08-21T08:14:51;28.00;99.90
3360;DHT22;1693;49.602;11.046;2023-08-21T08:17:18;27.80;99.90
3360;DHT22;1693;49.602;11.046;2023-08-21T08:19:45;27.90;99.90
3360;DHT22;1693;49.602;11.046;2023-08-21T08:22:12;27.90;99.90
3360;DHT22;1693;49.602;11.046;2023-08-21T08:24:39;28.20;99.90
3360;DHT22;1693;49.602;11.046;2023-08-21T08:27:08;28.40;99.90
3360;DHT22;1693;49.602;11.046;2023-08-21T08:29:35;28.50;99.90
3360;DHT22;1693;49.602;11.046;2023-08-21T08:32:03;28.40;99.90
3360;DHT22;1693;49.602;11.046;2023-08-21T08:34:30;28.50;99.90
3360;DHT22;1693;49.602;11.046;2023-08-21T08:36:56;28.50;99.90
3360;DHT22;1693;49.602;11.046;2023-08-21T08:39:23;28.70;99.90
3360;DHT22;1693;49.602;11.046;2023-08-21T08:41:54;28.70;99.90
3360;DHT22;1693;49.602;11.046;2023-08-21T08:44:25;28.70;99.90
3360;DHT22;1693;49.602;11.046;2023-08-21T08:46:53;28.80;99.90
3360;DHT22;1693;49.602;11.046;2023-08-21T08:49:21;29.00;99.90
3360;DHT22;1693;49.602;11.046;2023-08-21T08:51:49;29.20;99.90
3360;DHT22;1693;49.602;11.046;2023-08-21T08:54:17;29.30;99.90
3360;DHT22;1693;49.602;11.046;2023-08-21T08:56:44;29.40;99.90
3360;DHT22;1693;49.602;11.046;2023-08-21T08:59:11;29.40;99.90
3360;DHT22;1693;49.602;11.046;2023-08-21T09:01:42;29.60;99.90
3360;DHT22;1693;49.602;11.046;2023-08-21T09:04:09;29.90;99.90
3360;DHT22;1693;49.602;11.046;2023-08-21T09:06:36;30.00;99.90
3360;DHT22;1693;49.602;11.046;2023-08-21T09:09:03;29.60;99.90
3360;DHT22;1693;49.602;11.046;2023-08-21T09:11:32;29.70;99.90
3360;DHT22;1693;49.602;11.046;2023-08-21T09:14:00;29.70;99.90
3360;DHT22;1693;49.602;11.046;2023-08-21T09:16:27;29.70;99.90
3360;DHT22;1693;49.602;11.046;2023-08-21T09:18:56;29.80;99.90
3360;DHT22;1693;49.602;11.046;2023-08-21T09:21:24;29.60;99.90
3360;DHT22;1693;49.602;11.046;2023-08-21T09:23:57;29.90;99.90
3360;DHT22;1693;49.602;11.046;2023-08-21T09:26:24;29.90;99.90
3360;DHT22;1693;49.602;11.046;2023-08-21T09:28:52;29.80;99.90
3360;DHT22;1693;49.602;11.046;2023-08-21T09:31:22;29.80;99.90
3360;DHT22;1693;49.602;11.046;2023-08-21T09:33:56;29.90;99.90
3360;DHT22;1693;49.602;11.046;2023-08-21T09:36:24;29.80;99.90
3360;DHT22;1693;49.602;11.046;2023-08-21T09:38:51;29.70;99.90
3360;DHT22;1693;49.602;11.046;2023-08-21T09:41:22;30.00;99.90
3360;DHT22;1693;49.602;11.046;2023-08-21T09:43:50;30.10;99.90
3360;DHT22;1693;49.602;11.046;2023-08-21T09:46:23;30.10;99.90
3360;DHT22;1693;49.602;11.046;2023-08-21T09:48:51;30.10;99.90
3360;DHT22;1693;49.602;11.046;2023-08-21T09:51:20;30.50;99.90
3360;DHT22;1693;49.602;11.046;2023-08-21T09:53:48;30.70;99.90
3360;DHT22;1693;49.602;11.046;2023-08-21T09:56:18;30.50;99.90
3360;DHT22;1693;49.602;11.046;2023-08-21T09:58:47;30.50;99.90
3360;DHT22;1693;49.602;11.046;2023-08-21T10:01:16;30.80;99.90
3360;DHT22;1693;49.602;11.046;2023-08-21T10:03:44;31.00;99.90
3360;DHT22;1693;49.602;11.046;2023-08-21T10:06:16;31.20;99.90
3360;DHT22;1693;49.602;11.046;2023-08-21T10:08:46;31.30;99.90
3360;DHT22;1693;49.602;11.046;2023-08-21T10:11:17;31.20;99.90
3360;DHT22;1693;49.602;11.046;2023-08-21T10:13:46;31.50;99.90
3360;DHT22;1693;49.602;11.046;2023-08-21T10:16:13;31.60;99.90
3360;DHT22;1693;49.602;11.046;2023-08-21T10:18:44;31.80;99.90
3360;DHT22;1693;49.602;11.046;2023-08-21T10:21:12;31.70;99.90
3360;DHT22;1693;49.602;11.046;2023-08-21T10:23:40;31.80;99.90
3360;DHT22;1693;49.602;11.046;2023-08-21T10:26:10;32.10;99.90
3360;DHT22;1693;49.602;11.046;2023-08-21T10:28:58;32.50;99.90
3360;DHT22;1693;49.602;11.046;2023-08-21T10:31:32;32.70;99.90
3360;DHT22;1693;49.602;11.046;2023-08-21T10:34:01;32.70;99.90
3360;DHT22;1693;49.602;11.046;2023-08-21T10:37:05;32.80;99.90
3360;DHT22;1693;49.602;11.046;2023-08-21T10:39:33;33.00;99.90
3360;DHT22;1693;49.602;11.046;2023-08-21T10:42:06;33.10;99.90
3360;DHT22;1693;49.602;11.046;2023-08-21T10:44:35;32.70;99.90
3360;DHT22;1693;49.602;11.046;2023-08-21T10:49:44;34.00;99.90
3360;DHT22;1693;49.602;11.046;2023-08-21T10:52:12;34.00;99.90
3360;DHT22;1693;49.602;11.046;2023-08-21T10:54:49;35.00;99.90
3360;DHT22;1693;49.602;11.046;2023-08-21T10:57:18;35.60;99.90
3360;DHT22;1693;49.602;11.046;2023-08-21T11:02:23;37.40;99.90
3360;DHT22;1693;49.602;11.046;2023-08-21T11:04:50;36.70;97.60
3360;DHT22;1693;49.602;11.046;2023-08-21T11:07:18;36.80;98.00
3360;DHT22;1693;49.602;11.046;2023-08-21T11:09:45;37.10;98.10
3360;DHT22;1693;49.602;11.046;2023-08-21T11:12:13;38.50;91.90
3360;DHT22;1693;49.602;11.046;2023-08-21T11:14:43;39.90;92.70
3360;DHT22;1693;49.602;11.046;2023-08-21T11:17:10;41.70;90.20
3360;DHT22;1693;49.602;11.046;2023-08-21T11:19:38;41.30;81.10
3360;DHT22;1693;49.602;11.046;2023-08-21T11:22:05;39.60;86.20
3360;DHT22;1693;49.602;11.046;2023-08-21T11:24:43;38.80;87.90
3360;DHT22;1693;49.602;11.046;2023-08-21T11:27:12;38.10;85.90
3360;DHT22;1693;49.602;11.046;2023-08-21T11:29:42;37.80;86.00
3360;DHT22;1693;49.602;11.046;2023-08-21T11:32:10;38.40;85.80
3360;DHT22;1693;49.602;11.046;2023-08-21T11:34:39;38.10;88.60
3360;DHT22;1693;49.602;11.046;2023-08-21T11:37:07;38.10;88.00
3360;DHT22;1693;49.602;11.046;2023-08-21T11:39:44;39.70;85.80
3360;DHT22;1693;49.602;11.046;2023-08-21T11:42:12;41.30;78.70
3360;DHT22;1693;49.602;11.046;2023-08-21T11:44:43;41.20;77.60
3360;DHT22;1693;49.602;11.046;2023-08-21T11:47:10;40.10;75.40
3360;DHT22;1693;49.602;11.046;2023-08-21T11:49:39;39.90;75.90
3360;DHT22;1693;49.602;11.046;2023-08-21T11:52:07;39.80;79.60
3360;DHT22;1693;49.602;11.046;2023-08-21T11:54:35;39.50;72.60
3360;DHT22;1693;49.602;11.046;2023-08-21T11:57:06;38.50;78.90
3360;DHT22;1693;49.602;11.046;2023-08-21T11:59:34;37.60;76.40
3360;DHT22;1693;49.602;11.046;2023-08-21T12:02:08;36.60;82.70
3360;DHT22;1693;49.602;11.046;2023-08-21T12:04:36;36.20;81.80
3360;DHT22;1693;49.602;11.046;2023-08-21T12:07:03;35.60;88.10
3360;DHT22;1693;49.602;11.046;2023-08-21T12:09:30;35.20;90.40
3360;DHT22;1693;49.602;11.046;2023-08-21T12:11:57;34.90;85.30
3360;DHT22;1693;49.602;11.046;2023-08-21T12:14:24;34.90;84.60
3360;DHT22;1693;49.602;11.046;2023-08-21T12:16:51;35.00;85.00
3360;DHT22;1693;49.602;11.046;2023-08-21T12:19:21;34.60;85.10
3360;DHT22;1693;49.602;11.046;2023-08-21T12:21:48;34.80;89.40
3360;DHT22;1693;49.602;11.046;2023-08-21T12:24:15;35.50;89.60
3360;DHT22;1693;49.602;11.046;2023-08-21T12:26:42;35.60;89.80
3360;DHT22;1693;49.602;11.046;2023-08-21T12:29:09;35.80;80.70
3360;DHT22;1693;49.602;11.046;2023-08-21T12:31:36;35.80;85.10
3360;DHT22;1693;49.602;11.046;2023-08-21T12:34:03;35.80;86.90
3360;DHT22;1693;49.602;11.046;2023-08-21T12:36:34;36.10;81.20
3360;DHT22;1693;49.602;11.046;2023-08-21T12:39:02;36.50;80.00
3360;DHT22;1693;49.602;11.046;2023-08-21T12:41:29;36.40;82.80
3360;DHT22;1693;49.602;11.046;2023-08-21T12:43:56;37.10;79.00
3360;DHT22;1693;49.602;11.046;2023-08-21T12:46:23;38.10;79.90
3360;DHT22;1693;49.602;11.046;2023-08-21T12:48:52;39.80;76.00
3360;DHT22;1693;49.602;11.046;2023-08-21T12:51:19;40.50;71.80
3360;DHT22;1693;49.602;11.046;2023-08-21T12:53:47;40.90;68.10
3360;DHT22;1693;49.602;11.046;2023-08-21T12:56:18;41.00;64.00
3360;DHT22;1693;49.602;11.046;2023-08-21T12:58:46;41.10;61.70
3360;DHT22;1693;49.602;11.046;2023-08-21T13:01:13;42.20;62.50
3360;DHT22;1693;49.602;11.046;2023-08-21T13:03:44;43.50;59.80
3360;DHT22;1693;49.602;11.046;2023-08-21T13:06:12;44.60;56.40
3360;DHT22;1693;49.602;11.046;2023-08-21T13:08:39;44.80;54.40
3360;DHT22;1693;49.602;11.046;2023-08-21T13:11:07;44.20;52.30
3360;DHT22;1693;49.602;11.046;2023-08-21T13:13:35;43.00;53.10
3360;DHT22;1693;49.602;11.046;2023-08-21T13:16:03;42.70;54.90
3360;DHT22;1693;49.602;11.046;2023-08-21T13:18:30;42.60;54.50
3360;DHT22;1693;49.602;11.046;2023-08-21T13:20:57;42.50;55.30
3360;DHT22;1693;49.602;11.046;2023-08-21T13:23:24;43.10;54.20
3360;DHT22;1693;49.602;11.046;2023-08-21T13:25:51;43.00;53.10
3360;DHT22;1693;49.602;11.046;2023-08-21T13:28:19;41.40;53.00
3360;DHT22;1693;49.602;11.046;2023-08-21T13:30:46;41.20;54.50
3360;DHT22;1693;49.602;11.046;2023-08-21T13:33:14;41.90;54.90
3360;DHT22;1693;49.602;11.046;2023-08-21T13:35:43;42.80;53.30
3360;DHT22;1693;49.602;11.046;2023-08-21T13:38:10;43.20;52.00
3360;DHT22;1693;49.602;11.046;2023-08-21T13:40:38;43.50;52.80
3360;DHT22;1693;49.602;11.046;2023-08-21T13:43:07;43.60;51.50
3360;DHT22;1693;49.602;11.046;2023-08-21T13:45:41;44.40;52.90
3360;DHT22;1693;49.602;11.046;2023-08-21T13:48:12;44.60;54.50
3360;DHT22;1693;49.602;11.046;2023-08-21T13:50:39;43.50;52.00
3360;DHT22;1693;49.602;11.046;2023-08-21T13:53:07;43.40;52.20
3360;DHT22;1693;49.602;11.046;2023-08-21T13:55:34;42.70;52.90
3360;DHT22;1693;49.602;11.046;2023-08-21T13:58:01;42.70;55.80
3360;DHT22;1693;49.602;11.046;2023-08-21T14:02:57;45.50;49.50
3360;DHT22;1693;49.602;11.046;2023-08-21T14:05:24;45.60;48.80
3360;DHT22;1693;49.602;11.046;2023-08-21T14:07:52;45.70;47.40
3360;DHT22;1693;49.602;11.046;2023-08-21T14:10:19;45.60;49.20
3360;DHT22;1693;49.602;11.046;2023-08-21T14:12:46;46.50;48.00
3360;DHT22;1693;49.602;11.046;2023-08-21T14:15:13;46.70;47.20
3360;DHT22;1693;49.602;11.046;2023-08-21T14:17:40;46.90;47.00
3360;DHT22;1693;49.602;11.046;2023-08-21T14:20:10;45.80;46.80
3360;DHT22;1693;49.602;11.046;2023-08-21T14:22:38;45.60;48.50
3360;DHT22;1693;49.602;11.046;2023-08-21T14:25:06;45.70;46.80
3360;DHT22;1693;49.602;11.046;2023-08-21T14:27:33;45.30;47.10
3360;DHT22;1693;49.602;11.046;2023-08-21T14:30:00;44.50;46.80
3360;DHT22;1693;49.602;11.046;2023-08-21T14:32:27;45.20;47.70
3360;DHT22;1693;49.602;11.046;2023-08-21T14:34:54;44.90;47.00
3360;DHT22;1693;49.602;11.046;2023-08-21T14:37:23;45.30;47.40
3360;DHT22;1693;49.602;11.046;2023-08-21T14:39:50;45.60;46.80
3360;DHT22;1693;49.602;11.046;2023-08-21T14:42:17;46.00;46.60
3360;DHT22;1693;49.602;11.046;2023-08-21T14:44:44;44.50;49.30
3360;DHT22;1693;49.602;11.046;2023-08-21T14:47:11;44.10;47.50
3360;DHT22;1693;49.602;11.046;2023-08-21T14:49:38;44.00;48.70
3360;DHT22;1693;49.602;11.046;2023-08-21T14:52:05;43.40;48.40
3360;DHT22;1693;49.602;11.046;2023-08-21T14:54:35;44.40;48.80
3360;DHT22;1693;49.602;11.046;2023-08-21T14:57:02;46.10;48.50
3360;DHT22;1693;49.602;11.046;2023-08-21T14:59:29;45.20;48.60
3360;DHT22;1693;49.602;11.046;2023-08-21T15:01:57;43.40;49.20
3360;DHT22;1693;49.602;11.046;2023-08-21T15:04:24;43.80;48.20
3360;DHT22;1693;49.602;11.046;2023-08-21T15:06:51;43.90;47.60
3360;DHT22;1693;49.602;11.046;2023-08-21T15:11:46;42.30;50.00
3360;DHT22;1693;49.602;11.046;2023-08-21T15:14:13;42.60;53.20
3360;DHT22;1693;49.602;11.046;2023-08-21T15:16:40;42.70;52.30
3360;DHT22;1693;49.602;11.046;2023-08-21T15:19:09;43.80;50.40
3360;DHT22;1693;49.602;11.046;2023-08-21T15:21:36;43.20;49.50
3360;DHT22;1693;49.602;11.046;2023-08-21T15:24:03;42.30;50.60
3360;DHT22;1693;49.602;11.046;2023-08-21T15:26:32;44.40;48.40
3360;DHT22;1693;49.602;11.046;2023-08-21T15:29:00;45.80;46.80
3360;DHT22;1693;49.602;11.046;2023-08-21T15:31:28;45.70;47.20
3360;DHT22;1693;49.602;11.046;2023-08-21T15:33:55;45.20;47.10
3360;DHT22;1693;49.602;11.046;2023-08-21T15:38:53;46.10;46.00
3360;DHT22;1693;49.602;11.046;2023-08-21T15:41:20;45.20;45.90
3360;DHT22;1693;49.602;11.046;2023-08-21T15:43:47;45.20;47.80
3360;DHT22;1693;49.602;11.046;2023-08-21T15:46:15;44.60;48.00
3360;DHT22;1693;49.602;11.046;2023-08-21T15:48:42;44.30;49.10
3360;DHT22;1693;49.602;11.046;2023-08-21T15:51:09;44.10;48.30
3360;DHT22;1693;49.602;11.046;2023-08-21T15:53:36;44.30;47.60
3360;DHT22;1693;49.602;11.046;2023-08-21T15:56:04;44.30;47.00
3360;DHT22;1693;49.602;11.046;2023-08-21T15:58:31;42.40;49.00
3360;DHT22;1693;49.602;11.046;2023-08-21T16:00:58;41.60;51.40
3360;DHT22;1693;49.602;11.046;2023-08-21T16:03:27;42.40;48.90
3360;DHT22;1693;49.602;11.046;2023-08-21T16:05:54;42.60;48.80
3360;DHT22;1693;49.602;11.046;2023-08-21T16:08:21;42.90;49.00
3360;DHT22;1693;49.602;11.046;2023-08-21T16:10:49;43.80;48.00
3360;DHT22;1693;49.602;11.046;2023-08-21T16:13:16;43.80;47.10
3360;DHT22;1693;49.602;11.046;2023-08-21T16:15:44;42.70;50.20
3360;DHT22;1693;49.602;11.046;2023-08-21T16:18:11;42.20;51.90
3360;DHT22;1693;49.602;11.046;2023-08-21T16:23:07;41.20;51.50
3360;DHT22;1693;49.602;11.046;2023-08-21T16:25:34;41.30;49.30
3360;DHT22;1693;49.602;11.046;2023-08-21T16:28:00;41.00;50.70
3360;DHT22;1693;49.602;11.046;2023-08-21T16:30:28;41.40;49.40
3360;DHT22;1693;49.602;11.046;2023-08-21T16:32:55;42.30;48.90
3360;DHT22;1693;49.602;11.046;2023-08-21T16:35:23;41.90;48.50
3360;DHT22;1693;49.602;11.046;2023-08-21T16:37:52;42.40;51.30
3360;DHT22;1693;49.602;11.046;2023-08-21T16:40:19;42.70;49.40
3360;DHT22;1693;49.602;11.046;2023-08-21T16:42:48;42.40;50.90
3360;DHT22;1693;49.602;11.046;2023-08-21T16:45:15;43.00;50.00
3360;DHT22;1693;49.602;11.046;2023-08-21T16:50:12;41.20;50.40
3360;DHT22;1693;49.602;11.046;2023-08-21T16:52:41;40.80;52.40
3360;DHT22;1693;49.602;11.046;2023-08-21T16:55:10;40.80;51.40
3360;DHT22;1693;49.602;11.046;2023-08-21T16:57:37;41.50;52.00
3360;DHT22;1693;49.602;11.046;2023-08-21T17:00:06;41.30;53.70
3360;DHT22;1693;49.602;11.046;2023-08-21T17:02:35;41.60;52.90